createdAt,value
2022-07-26T00:02:25.175Z,161853.84
2022-07-26T00:04:53.110Z,161836.41
2022-07-26T00:07:20.367Z,161825.66
2022-07-26T00:09:48.543Z,161818.94
2022-07-26T00:12:16.212Z,161829.69
2022-07-26T00:14:44.159Z,161829.69
2022-07-26T00:17:11.510Z,161813.59
2022-07-26T00:19:38.970Z,161812.28
2022-07-26T00:22:25.043Z,161794.78
2022-07-26T00:24:52.616Z,161771.97
2022-07-26T00:27:19.848Z,161793.47
2022-07-26T00:29:47.364Z,161773.31
2022-07-26T00:32:15.019Z,161775.97
2022-07-26T00:34:42.492Z,161766.59
2022-07-26T00:37:09.774Z,161751.84
2022-07-26T00:39:37.427Z,161745.13
2022-07-26T00:42:04.606Z,161743.78
2022-07-26T00:44:45.602Z,161745.13
2022-07-26T00:47:13.576Z,161733.03
2022-07-26T00:49:41.834Z,161704.78
2022-07-26T00:52:10.060Z,161680.63
2022-07-26T00:54:38.851Z,161702.13
2022-07-26T00:57:06.809Z,161688.69
2022-07-26T00:59:34.049Z,161676.59
2022-07-26T01:02:04.440Z,161679.31
2022-07-26T01:04:31.909Z,161671.25
2022-07-26T01:06:59.661Z,161665.88
2022-07-26T01:09:27.273Z,161664.53
2022-07-26T01:11:54.531Z,161661.84
2022-07-26T01:14:24.631Z,161652.44
2022-07-26T01:16:52.579Z,161641.69
2022-07-26T01:19:20.384Z,161629.66
2022-07-26T01:21:48.064Z,161636.38
2022-07-26T01:24:15.550Z,161624.25
2022-07-26T01:26:42.729Z,161608.19
2022-07-26T01:29:10.294Z,161609.50
2022-07-26T01:31:37.819Z,161602.78
2022-07-26T01:34:05.327Z,161589.38
2022-07-26T01:36:33.214Z,161584.00
2022-07-26T01:39:00.639Z,161571.94
2022-07-26T01:41:37.880Z,161580.00
2022-07-26T01:44:08.030Z,161571.94
2022-07-26T01:46:36.313Z,161570.56
2022-07-26T01:49:04.695Z,161569.25
2022-07-26T01:51:32.321Z,161561.19
2022-07-26T01:53:59.541Z,161551.81
2022-07-26T01:56:26.811Z,161531.69
2022-07-26T01:58:54.340Z,161561.19
2022-07-26T02:01:38.163Z,161554.47
2022-07-26T02:04:09.368Z,161535.69
2022-07-26T02:06:37.375Z,161526.31
2022-07-26T02:09:07.525Z,161524.97
2022-07-26T02:11:37.153Z,161503.50
2022-07-26T02:14:04.943Z,161506.16
2022-07-26T02:16:32.427Z,161495.47
2022-07-26T02:18:59.844Z,161479.31
2022-07-26T02:21:27.056Z,161472.63
2022-07-26T02:23:54.286Z,161476.59
2022-07-26T02:26:21.652Z,161456.47
2022-07-26T02:28:48.929Z,161437.72
2022-07-26T02:31:16.208Z,161448.44
2022-07-26T02:33:43.709Z,161421.59
2022-07-26T02:36:10.710Z,161420.25
2022-07-26T02:38:37.911Z,161398.81
2022-07-26T02:41:06.368Z,161414.88
2022-07-26T02:43:33.729Z,161396.13
2022-07-26T02:46:01.564Z,161402.84
2022-07-26T02:48:33.095Z,161404.19
2022-07-26T02:51:00.307Z,161381.38
2022-07-26T02:53:28.025Z,161398.81
2022-07-26T02:55:55.433Z,161381.38
2022-07-26T02:58:24.978Z,161374.69
2022-07-26T03:00:52.050Z,161359.94
2022-07-26T03:03:19.549Z,161362.59
2022-07-26T03:05:46.665Z,161349.19
2022-07-26T03:08:13.822Z,161362.59
2022-07-26T03:10:41.170Z,161378.66
2022-07-26T03:13:08.435Z,161373.34
2022-07-26T03:15:35.650Z,161365.25
2022-07-26T03:18:03.210Z,161367.97
2022-07-26T03:20:30.502Z,161358.56
2022-07-26T03:22:57.661Z,161346.50
2022-07-26T03:25:24.982Z,161367.97
2022-07-26T03:27:57.016Z,161397.47
2022-07-26T03:30:26.567Z,161373.34
2022-07-26T03:32:54.444Z,161371.97
2022-07-26T03:35:21.822Z,161388.09
2022-07-26T03:37:49.196Z,161385.38
2022-07-26T03:40:16.692Z,161386.72
2022-07-26T03:42:45.328Z,161404.19
2022-07-26T03:45:14.070Z,161390.75
2022-07-26T03:47:41.916Z,161397.47
2022-07-26T03:50:11.060Z,161405.50
2022-07-26T03:52:38.602Z,161404.19
2022-07-26T03:55:25.718Z,161386.72
2022-07-26T03:57:53.329Z,161405.50
2022-07-26T04:00:20.487Z,161428.31
2022-07-26T04:02:47.840Z,161417.59
2022-07-26T04:05:15.368Z,161433.69
2022-07-26T04:07:43.862Z,161429.69
2022-07-26T04:10:21.615Z,161449.78
2022-07-26T04:12:49.926Z,161459.19
2022-07-26T04:15:19.114Z,161492.75
2022-07-26T04:17:48.525Z,161534.34
2022-07-26T04:20:16.045Z,161553.16
2022-07-26T04:22:43.449Z,161577.28
2022-07-26T04:25:11.303Z,161608.19
2022-07-26T04:27:38.550Z,161633.66
2022-07-26T04:30:12.397Z,161660.50
2022-07-26T04:32:42.715Z,161668.56
2022-07-26T04:35:10.012Z,161691.34
2022-07-26T04:37:41.427Z,161702.13
2022-07-26T04:40:10.330Z,161730.34
2022-07-26T04:42:40.127Z,161747.78
2022-07-26T04:45:08.472Z,161769.25
2022-07-26T04:47:36.915Z,161781.34
2022-07-26T04:50:05.136Z,161804.19
2022-07-26T04:52:32.581Z,161827.03
2022-07-26T04:55:01.352Z,161831.03
2022-07-26T04:57:28.605Z,161867.28
2022-07-26T05:00:16.725Z,161898.19
2022-07-26T05:02:43.323Z,161942.50
2022-07-26T05:05:10.619Z,161930.41
2022-07-26T05:07:46.111Z,161986.88
2022-07-26T05:10:14.685Z,162027.19
2022-07-26T05:12:41.850Z,162031.19
2022-07-26T05:15:14.122Z,162068.81
2022-07-26T05:17:43.087Z,162119.88
2022-07-26T05:20:12.532Z,162117.19
2022-07-26T05:22:39.955Z,162200.53
2022-07-26T05:25:07.929Z,162271.75
2022-07-26T05:27:35.374Z,162316.13
2022-07-26T05:30:02.473Z,162328.19
2022-07-26T05:32:30.089Z,162351.03
2022-07-26T05:34:57.499Z,162381.97
2022-07-26T05:37:24.771Z,162441.16
2022-07-26T05:39:52.145Z,162485.53
2022-07-26T05:42:19.467Z,162469.41
2022-07-26T05:44:46.594Z,162516.47
2022-07-26T05:47:14.362Z,162555.47
2022-07-26T05:49:41.589Z,162620.06
2022-07-26T05:52:09.166Z,162681.94
2022-07-26T05:54:36.562Z,162706.13
2022-07-26T05:57:04.734Z,162750.56
2022-07-26T05:59:33.034Z,162782.81
2022-07-26T06:02:00.546Z,162788.22
2022-07-26T06:16:18.705Z,162781.50
2022-07-26T06:18:46.131Z,162781.50
2022-07-26T06:21:13.158Z,162795.00
2022-07-26T06:23:40.867Z,162778.81
2022-07-26T06:26:08.327Z,162770.75
2022-07-26T06:28:36.812Z,162799.06
2022-07-26T06:31:03.871Z,162846.13
2022-07-26T06:33:31.353Z,162916.09
2022-07-26T06:35:58.754Z,162956.50
2022-07-26T06:38:25.922Z,162994.22
2022-07-26T06:40:53.722Z,163025.16
2022-07-26T06:43:21.205Z,162961.84
2022-07-26T06:45:49.484Z,163010.34
2022-07-26T06:48:17.085Z,163023.81
2022-07-26T06:50:44.924Z,163041.34
2022-07-26T06:53:12.237Z,163048.09
2022-07-26T06:55:39.537Z,163144.97
2022-07-26T06:58:06.872Z,163240.66
2022-07-26T07:00:34.238Z,163349.75
2022-07-26T07:03:01.694Z,163429.25
2022-07-26T07:05:31.202Z,163557.31
2022-07-26T07:07:58.734Z,163558.66
2022-07-26T07:10:26.200Z,163527.63
2022-07-26T07:12:53.247Z,163565.38
2022-07-26T07:15:21.059Z,163570.78
2022-07-26T07:17:48.885Z,163655.69
2022-07-26T07:20:16.083Z,163688.06
2022-07-26T07:22:43.306Z,163786.47
2022-07-26T07:25:27.591Z,163756.84
2022-07-26T07:27:59.370Z,163702.94
2022-07-26T07:30:27.901Z,163643.56
2022-07-26T07:32:56.559Z,163653.03
2022-07-26T07:35:24.337Z,163732.59
2022-07-26T07:37:59.270Z,163735.25
2022-07-26T07:40:26.481Z,163739.34
2022-07-26T07:42:53.688Z,163731.25
2022-07-26T07:45:21.064Z,163735.25
2022-07-26T07:47:48.748Z,163705.63
2022-07-26T07:50:15.917Z,163700.16
2022-07-26T07:52:45.777Z,163623.38
2022-07-26T07:55:40.698Z,163665.13
2022-07-26T07:58:00.442Z,163577.53
2022-07-26T08:00:27.812Z,163491.25
2022-07-26T08:02:55.728Z,163537.09
2022-07-26T08:05:23.276Z,163523.56
2022-07-26T08:07:50.585Z,163475.09
2022-07-26T08:10:20.426Z,163489.91
2022-07-26T08:12:51.177Z,163487.19
2022-07-26T08:15:19.678Z,163485.84
2022-07-26T08:17:54.690Z,163446.81
2022-07-26T08:20:23.697Z,163442.75
2022-07-26T08:22:53.225Z,163471.03
2022-07-26T08:25:20.897Z,163479.09
2022-07-26T08:28:03.113Z,163475.09
2022-07-26T08:30:32.219Z,163498.00
2022-07-26T08:32:59.666Z,163530.34
2022-07-26T08:35:27.009Z,163570.78
2022-07-26T08:37:54.457Z,163589.69
2022-07-26T08:40:21.821Z,163595.09
2022-07-26T08:42:58.462Z,163658.38
2022-07-26T08:45:27.788Z,163659.75
2022-07-26T08:48:16.692Z,163647.63
2022-07-26T08:50:43.116Z,163605.84
2022-07-26T08:53:12.092Z,163663.78
2022-07-26T08:58:26.889Z,163627.41
2022-07-26T09:01:08.967Z,163605.84
2022-07-26T09:03:40.168Z,163646.28
2022-07-26T09:06:16.086Z,163667.84
2022-07-26T09:08:45.434Z,163654.34
2022-07-26T09:11:33.264Z,163584.28
2022-07-26T09:14:03.247Z,163581.59
2022-07-26T09:16:31.050Z,163554.63
2022-07-26T09:19:19.585Z,163543.84
2022-07-26T09:21:47.176Z,163568.13
2022-07-26T09:24:30.443Z,163554.63
2022-07-26T09:27:00.121Z,163636.81
2022-07-26T09:29:28.667Z,163632.78
2022-07-26T09:32:20.036Z,163693.41
2022-07-26T09:34:59.110Z,163739.34
2022-07-26T09:37:37.388Z,163738.00
2022-07-26T09:40:08.083Z,163720.44
2022-07-26T09:42:35.665Z,163622.00
2022-07-26T09:45:04.736Z,163622.00
2022-07-26T09:47:37.758Z,163632.78
2022-07-26T09:50:12.235Z,163662.44
2022-07-26T09:52:39.770Z,163658.38
2022-07-26T09:55:08.572Z,163684.00
2022-07-26T09:57:35.852Z,163632.78
2022-07-26T10:00:05.926Z,163577.53
2022-07-26T10:02:35.475Z,163534.41
2022-07-26T10:05:02.748Z,163454.88
2022-07-26T10:07:30.342Z,163481.84
2022-07-26T10:10:04.613Z,163518.22
2022-07-26T10:12:33.335Z,163511.47
2022-07-26T10:15:00.684Z,163514.16
2022-07-26T10:17:31.447Z,163514.16
2022-07-26T10:20:04.215Z,163499.34
2022-07-26T10:22:52.201Z,163469.69
2022-07-26T10:25:19.989Z,163430.59
2022-07-26T10:27:55.371Z,163405.03
2022-07-26T10:30:28.845Z,163398.28
2022-07-26T10:33:03.503Z,163386.16
2022-07-26T10:35:36.427Z,163303.97
2022-07-26T10:38:04.801Z,163297.22
2022-07-26T10:40:32.491Z,163291.84
2022-07-26T10:46:18.605Z,163237.94
2022-07-26T10:49:00.139Z,163231.22
2022-07-26T10:51:29.879Z,163211.06
2022-07-26T10:54:02.194Z,163219.13
2022-07-26T10:56:33.440Z,163201.59
2022-07-26T10:59:02.919Z,163202.94
2022-07-26T11:01:45.470Z,163239.34
2022-07-26T11:04:19.817Z,163188.13
2022-07-26T11:06:47.554Z,163136.91
2022-07-26T11:09:15.061Z,163119.44
2022-07-26T11:11:46.657Z,163128.84
2022-07-26T11:14:17.077Z,163128.84
2022-07-26T11:16:50.102Z,163087.09
2022-07-26T11:19:18.600Z,163033.28
2022-07-26T11:21:49.154Z,162992.88
2022-07-26T11:24:16.399Z,162956.50
2022-07-26T11:26:45.095Z,162908.03
2022-07-26T11:29:16.776Z,162895.91
2022-07-26T11:31:50.330Z,162851.53
2022-07-26T11:34:25.416Z,162832.66
2022-07-26T11:36:55.542Z,162858.25
2022-07-26T11:39:27.360Z,162835.38
2022-07-26T11:42:08.596Z,162768.03
2022-07-26T11:44:36.315Z,162762.63
2022-07-26T11:47:25.699Z,162729.03
2022-07-26T11:52:41.447Z,162747.84
2022-07-26T11:55:09.244Z,162722.31
2022-07-26T11:57:36.584Z,162712.88
2022-07-26T12:00:04.934Z,162703.47
2022-07-26T12:02:55.781Z,162675.22
2022-07-26T12:05:23.896Z,162632.19
2022-07-26T12:08:04.655Z,162593.16
2022-07-26T12:10:32.396Z,162547.41
2022-07-26T12:13:12.596Z,162496.31
2022-07-26T12:15:53.102Z,162404.88
2022-07-26T12:18:31.097Z,162338.97
2022-07-26T12:21:09.171Z,162274.47
2022-07-26T12:23:49.719Z,162224.75
2022-07-26T12:26:43.393Z,162140.03
2022-07-26T12:29:29.300Z,162095.66
2022-07-26T12:32:15.413Z,162020.47
2022-07-26T12:34:56.659Z,161986.88
2022-07-26T12:37:33.731Z,161938.44
2022-07-26T12:40:12.844Z,161927.75
2022-07-26T12:43:00.265Z,161888.78
2022-07-26T12:45:29.195Z,161870.00
2022-07-26T12:47:58.407Z,161851.19
2022-07-26T12:50:28.279Z,161845.81
2022-07-26T12:53:03.402Z,161833.75
2022-07-26T12:55:31.729Z,161793.47
2022-07-26T12:57:59.952Z,161765.25
2022-07-26T13:00:29.616Z,161746.44
2022-07-26T13:02:57.954Z,161742.44
2022-07-26T13:05:25.059Z,161711.50
2022-07-26T13:07:52.651Z,161680.63
2022-07-26T13:10:33.014Z,161686.03
2022-07-26T13:13:01.213Z,161636.38
2022-07-26T13:15:37.070Z,161656.50
2022-07-26T13:18:08.835Z,161659.16
2022-07-26T13:20:38.123Z,161663.16
2022-07-26T13:23:06.255Z,161676.59
2022-07-26T13:25:38.337Z,161664.53
2022-07-26T13:28:08.649Z,161688.69
2022-07-26T13:30:41.165Z,161704.78
2022-07-26T13:33:09.299Z,161727.69
2022-07-26T13:35:39.314Z,161738.41
2022-07-26T13:38:09.163Z,161746.44
2022-07-26T13:40:36.905Z,161771.97
2022-07-26T13:43:04.796Z,161789.41
2022-07-26T13:45:31.929Z,161781.34
2022-07-26T13:47:59.908Z,161816.28
2022-07-26T13:50:28.116Z,161820.31
2022-07-26T13:52:56.465Z,161813.59
2022-07-26T13:55:25.593Z,161848.53
2022-07-26T13:57:56.829Z,161843.13
2022-07-26T14:00:29.469Z,161851.19
2022-07-26T14:03:00.422Z,161860.56
2022-07-26T14:05:28.147Z,161861.94
2022-07-26T14:07:55.789Z,161857.91
2022-07-26T14:10:23.832Z,161832.38
2022-07-26T14:12:52.088Z,161806.88
2022-07-26T14:15:22.569Z,161806.88
2022-07-26T14:17:51.708Z,161790.75
2022-07-26T14:20:19.354Z,161821.66
2022-07-26T14:22:47.357Z,161818.94
2022-07-26T14:25:14.888Z,161806.88
2022-07-26T14:27:42.234Z,161806.88
2022-07-26T14:30:09.895Z,161833.75
2022-07-26T14:35:05.173Z,161847.13
2022-07-26T14:37:43.157Z,161875.34
2022-07-26T14:40:15.010Z,161886.09
2022-07-26T14:42:42.407Z,161867.28
2022-07-26T14:45:10.689Z,161855.22
2022-07-26T14:47:38.571Z,161843.13
2022-07-26T14:50:08.048Z,161851.19
2022-07-26T14:52:43.862Z,161818.94
2022-07-26T14:55:12.514Z,161816.28
2022-07-26T14:57:40.500Z,161792.13
2022-07-26T15:00:10.312Z,161754.50
2022-07-26T15:02:45.259Z,161747.78
2022-07-26T15:05:14.108Z,161720.94
2022-07-26T15:07:42.082Z,161722.25
2022-07-26T15:10:11.713Z,161727.69
2022-07-26T15:12:39.256Z,161737.06
2022-07-26T15:15:07.964Z,161746.44
2022-07-26T15:17:35.590Z,161758.56
2022-07-26T15:20:04.580Z,161763.94
2022-07-26T15:22:32.034Z,161769.25
2022-07-26T15:24:59.250Z,161745.13
2022-07-26T15:27:26.417Z,161763.94
2022-07-26T15:29:56.194Z,161763.94
2022-07-26T15:32:25.663Z,161767.94
2022-07-26T15:34:53.902Z,161757.22
2022-07-26T15:37:21.474Z,161757.22
2022-07-26T15:39:48.550Z,161731.69
2022-07-26T15:42:19.158Z,161746.44
2022-07-26T15:44:48.975Z,161751.84
2022-07-26T15:47:43.424Z,161758.56
2022-07-26T15:50:07.374Z,161735.75
2022-07-26T15:52:38.512Z,161742.44
2022-07-26T15:55:07.306Z,161743.78
2022-07-26T15:57:35.432Z,161734.41
2022-07-26T16:00:11.236Z,161714.22
2022-07-26T16:02:40.983Z,161719.53
2022-07-26T16:05:08.918Z,161707.50
2022-07-26T16:07:36.173Z,161706.16
2022-07-26T16:10:04.351Z,161699.44
2022-07-26T16:12:31.620Z,161667.22
2022-07-26T16:14:58.950Z,161665.88
2022-07-26T16:17:26.391Z,161645.75
2022-07-26T16:19:53.627Z,161616.22
2022-07-26T16:22:20.835Z,161586.72
2022-07-26T16:24:48.511Z,161578.66
2022-07-26T16:27:15.649Z,161574.63
2022-07-26T16:29:42.796Z,161574.63
2022-07-26T16:32:12.061Z,161553.16
2022-07-26T16:34:39.414Z,161559.88
2022-07-26T16:37:06.777Z,161561.19
2022-07-26T16:39:34.080Z,161559.88
2022-07-26T16:42:06.811Z,161561.19
2022-07-26T16:44:36.377Z,161558.53
2022-07-26T16:47:04.604Z,161550.47
2022-07-26T16:49:31.883Z,161545.09
2022-07-26T16:51:59.295Z,161523.63
2022-07-26T16:54:26.861Z,161541.06
2022-07-26T16:56:54.112Z,161534.34
2022-07-26T16:59:21.553Z,161541.06
2022-07-26T17:01:49.028Z,161531.69
2022-07-26T17:04:17.369Z,161533.00
2022-07-26T17:06:56.648Z,161511.53
2022-07-26T17:09:32.065Z,161510.22
2022-07-26T17:12:04.265Z,161504.84
2022-07-26T17:14:33.844Z,161496.78
2022-07-26T17:17:01.148Z,161460.53
2022-07-26T17:19:28.464Z,161456.47
2022-07-26T17:21:56.052Z,161459.19
2022-07-26T17:24:23.132Z,161459.19
2022-07-26T17:26:50.365Z,161453.81
2022-07-26T17:29:17.883Z,161457.81
2022-07-26T17:31:45.128Z,161460.53
2022-07-26T17:34:12.296Z,161449.78
2022-07-26T17:36:39.789Z,161456.47
2022-07-26T17:39:14.968Z,161456.47
2022-07-26T17:41:48.994Z,161459.19
2022-07-26T17:44:16.255Z,161464.53
2022-07-26T17:46:43.487Z,161463.19
2022-07-26T17:49:11.781Z,161468.56
2022-07-26T17:51:39.454Z,161459.19
2022-07-26T17:54:06.725Z,161452.47
2022-07-26T17:56:34.678Z,161451.16
2022-07-26T17:59:02.199Z,161456.47
2022-07-26T18:01:29.486Z,161441.72
2022-07-26T18:03:57.000Z,161408.19
2022-07-26T18:06:24.121Z,161436.34
2022-07-26T18:08:51.326Z,161443.06
2022-07-26T18:11:18.932Z,161431.03
2022-07-26T18:13:46.099Z,161431.03
2022-07-26T18:16:14.251Z,161426.97
2022-07-26T18:18:41.795Z,161425.66
2022-07-26T18:21:09.119Z,161426.97
2022-07-26T18:23:36.232Z,161420.25
2022-07-26T18:26:04.014Z,161402.84
2022-07-26T18:28:31.468Z,161432.34
2022-07-26T18:30:58.663Z,161426.97
2022-07-26T18:33:26.515Z,161417.59
2022-07-26T18:35:53.837Z,161420.25
2022-07-26T18:38:21.014Z,161432.34
2022-07-26T18:40:48.475Z,161426.97
2022-07-26T18:43:15.640Z,161428.31
2022-07-26T18:45:42.758Z,161435.00
2022-07-26T18:48:10.597Z,161429.69
2022-07-26T18:50:40.030Z,161426.97
2022-07-26T18:53:08.502Z,161412.22
2022-07-26T18:55:35.930Z,161429.69
2022-07-26T18:58:06.685Z,161424.31
2022-07-26T19:00:34.366Z,161420.25
2022-07-26T19:03:01.785Z,161420.25
2022-07-26T19:05:34.439Z,161413.56
2022-07-26T19:08:03.960Z,161394.81
2022-07-26T19:10:31.155Z,161400.13
2022-07-26T19:12:58.745Z,161397.47
2022-07-26T19:15:26.168Z,161371.97
2022-07-26T19:17:54.351Z,161389.44
2022-07-26T19:20:21.669Z,161390.75
2022-07-26T19:22:51.090Z,161376.00
2022-07-26T19:25:18.795Z,161377.34
2022-07-26T19:27:46.053Z,161367.97
2022-07-26T19:30:13.739Z,161358.56
2022-07-26T19:32:41.060Z,161350.50
2022-07-26T19:35:09.179Z,161325.06
2022-07-26T19:37:36.773Z,161317.00
2022-07-26T19:40:04.443Z,161311.63
2022-07-26T19:42:32.642Z,161298.22
2022-07-26T19:45:00.252Z,161280.75
2022-07-26T19:47:29.809Z,161274.09
2022-07-26T19:49:57.524Z,161264.69
2022-07-26T19:52:25.088Z,161260.69
2022-07-26T19:54:52.391Z,161240.56
2022-07-26T19:57:19.910Z,161224.44
2022-07-26T19:59:48.122Z,161215.03
2022-07-26T20:02:15.866Z,161205.66
2022-07-26T20:04:46.019Z,161188.19
2022-07-26T20:07:19.426Z,161172.13
2022-07-26T20:09:49.136Z,161165.41
2022-07-26T20:12:18.122Z,161161.41
2022-07-26T20:14:45.589Z,161146.69
2022-07-26T20:17:13.254Z,161142.63
2022-07-26T20:19:41.473Z,161138.59
2022-07-26T20:22:08.914Z,161121.19
2022-07-26T20:24:38.217Z,161110.44
2022-07-26T20:27:07.103Z,161109.09
2022-07-26T20:29:34.609Z,161083.66
2022-07-26T20:32:02.031Z,161070.25
2022-07-26T20:34:29.722Z,161062.22
2022-07-26T20:36:57.294Z,161046.09
2022-07-26T20:39:26.296Z,161054.13
2022-07-26T20:41:54.050Z,161044.78
2022-07-26T20:44:27.657Z,161042.13
2022-07-26T20:46:56.046Z,161031.38
2022-07-26T20:49:23.350Z,161020.69
2022-07-26T20:51:50.588Z,160997.91
2022-07-26T20:54:18.107Z,160993.88
2022-07-26T20:56:45.519Z,160977.78
2022-07-26T20:59:13.177Z,160985.81
2022-07-26T21:01:41.156Z,160979.13
2022-07-26T21:04:12.101Z,160958.97
2022-07-26T21:06:39.472Z,160929.50
2022-07-26T21:09:09.900Z,160926.78
2022-07-26T21:11:38.910Z,160930.81
2022-07-26T21:14:06.362Z,160922.78
2022-07-26T21:16:34.028Z,160930.81
2022-07-26T21:19:02.190Z,160933.47
2022-07-26T21:21:29.552Z,160929.50
2022-07-26T21:23:57.040Z,160920.13
2022-07-26T21:26:24.381Z,160906.72
2022-07-26T21:28:51.697Z,160897.31
2022-07-26T21:31:19.097Z,160897.31
2022-07-26T21:33:46.295Z,160883.91
2022-07-26T21:36:14.461Z,160879.91
2022-07-26T21:38:42.433Z,160877.22
2022-07-26T21:41:13.410Z,160869.19
2022-07-26T21:43:41.879Z,160883.91
2022-07-26T21:46:12.726Z,160890.63
2022-07-26T21:48:41.160Z,160898.66
2022-07-26T21:51:08.418Z,160909.38
2022-07-26T21:53:35.907Z,160906.72
2022-07-26T21:56:05.604Z,160893.31
2022-07-26T21:58:36.589Z,160892.00
2022-07-26T22:01:06.528Z,160878.59
2022-07-26T22:03:35.884Z,160853.13
2022-07-26T22:06:03.563Z,160811.59
2022-07-26T22:08:31.861Z,160806.22
2022-07-26T22:10:59.081Z,160796.84
2022-07-26T22:13:26.461Z,160800.91
2022-07-26T22:15:53.914Z,160795.53
2022-07-26T22:18:21.357Z,160812.91
2022-07-26T22:20:49.775Z,160822.31
2022-07-26T22:23:18.869Z,160835.72
2022-07-26T22:25:46.126Z,160849.06
2022-07-26T22:28:17.958Z,160858.47
2022-07-26T22:30:46.600Z,160858.47
2022-07-26T22:33:14.030Z,160853.13
2022-07-26T22:35:41.247Z,160843.75
2022-07-26T22:38:10.469Z,160837.06
2022-07-26T22:40:39.220Z,160841.03
2022-07-26T22:43:07.811Z,160824.97
2022-07-26T22:45:35.539Z,160822.31
2022-07-26T22:48:04.542Z,160822.31
2022-07-26T22:50:32.490Z,160818.28
2022-07-26T22:53:01.175Z,160819.63
2022-07-26T22:55:28.818Z,160811.59
2022-07-26T22:57:56.094Z,160812.91
2022-07-26T23:00:23.591Z,160803.56
2022-07-26T23:02:50.974Z,160804.88
2022-07-26T23:05:18.375Z,160800.91
2022-07-26T23:07:47.807Z,160796.84
2022-07-26T23:10:16.718Z,160791.47
2022-07-26T23:12:44.382Z,160779.47
2022-07-26T23:15:12.308Z,160775.41
2022-07-26T23:17:39.542Z,160775.41
2022-07-26T23:20:08.490Z,160784.78
2022-07-26T23:22:36.444Z,160791.47
2022-07-26T23:25:05.017Z,160790.16
2022-07-26T23:27:32.275Z,160788.81
2022-07-26T23:29:59.571Z,160784.78
2022-07-26T23:32:26.806Z,160783.44
2022-07-26T23:34:54.038Z,160780.78
2022-07-26T23:37:21.556Z,160788.81
2022-07-26T23:39:48.699Z,160786.16
2022-07-26T23:42:15.992Z,160787.50
2022-07-26T23:44:43.245Z,160772.75
2022-07-26T23:47:10.620Z,160782.13
2022-07-26T23:49:37.880Z,160771.38
2022-07-26T23:52:05.401Z,160767.41
2022-07-26T23:54:32.706Z,160751.34
2022-07-26T23:56:59.838Z,160754.00
2022-07-26T23:59:27.270Z,160764.72
